createdAt,value
2019-01-06T00:00:16.140Z,5.07
2019-01-06T00:01:16.206Z,5.07
2019-01-06T00:02:16.477Z,5.10
2019-01-06T00:03:15.740Z,5.08
2019-01-06T00:04:16.014Z,5.07
2019-01-06T00:05:16.296Z,5.08
2019-01-06T00:06:16.564Z,5.03
2019-01-06T00:07:15.824Z,5.04
2019-01-06T00:08:16.090Z,5.04
2019-01-06T00:09:16.360Z,4.99
2019-01-06T00:10:16.650Z,4.99
2019-01-06T00:11:16.687Z,5.03
2019-01-06T00:12:15.953Z,5.07
2019-01-06T00:13:16.218Z,5.04
2019-01-06T00:14:16.478Z,5.06
2019-01-06T00:15:15.763Z,5.03
2019-01-06T00:16:16.029Z,5.03
2019-01-06T00:17:16.296Z,5.02
2019-01-06T00:18:16.564Z,5.03
2019-01-06T00:19:15.841Z,5.02
2019-01-06T00:20:16.108Z,5.04
2019-01-06T00:21:16.169Z,5.04
2019-01-06T00:22:16.447Z,5.00
2019-01-06T00:23:16.711Z,5.02
2019-01-06T00:24:15.984Z,5.02
2019-01-06T00:25:16.256Z,5.02
2019-01-06T00:26:16.520Z,5.00
2019-01-06T00:27:15.781Z,5.03
2019-01-06T00:28:16.050Z,5.02
2019-01-06T00:29:16.325Z,5.06
2019-01-06T00:30:16.627Z,5.03
2019-01-06T00:31:16.678Z,5.03
2019-01-06T00:32:15.947Z,5.06
2019-01-06T00:33:16.230Z,5.04
2019-01-06T00:34:16.513Z,5.03
2019-01-06T00:35:15.778Z,5.04
2019-01-06T00:36:16.035Z,5.02
2019-01-06T00:37:16.305Z,5.00
2019-01-06T00:38:16.569Z,5.00
2019-01-06T00:39:15.836Z,4.99
2019-01-06T00:40:16.110Z,5.02
2019-01-06T00:41:16.160Z,5.02
2019-01-06T00:42:16.431Z,5.02
2019-01-06T00:43:16.701Z,5.04
2019-01-06T00:44:15.964Z,5.04
2019-01-06T00:45:16.232Z,5.03
2019-01-06T00:46:16.495Z,4.97
2019-01-06T00:47:15.765Z,4.99
2019-01-06T00:48:16.030Z,5.00
2019-01-06T00:49:16.290Z,5.02
2019-01-06T00:50:16.565Z,5.03
2019-01-06T00:51:16.608Z,5.03
2019-01-06T00:52:15.871Z,5.04
2019-01-06T00:53:16.133Z,5.00
2019-01-06T00:54:16.401Z,5.00
2019-01-06T00:55:16.670Z,5.04
2019-01-06T00:56:15.942Z,5.02
2019-01-06T00:57:16.206Z,5.03
2019-01-06T00:58:16.471Z,5.03
2019-01-06T00:59:15.747Z,5.03
2019-01-06T01:00:16.027Z,5.04
2019-01-06T01:01:16.099Z,5.06
2019-01-06T01:02:16.366Z,5.03
2019-01-06T01:03:16.629Z,5.02
2019-01-06T01:04:15.910Z,5.02
2019-01-06T01:05:16.179Z,5.02
2019-01-06T01:06:16.416Z,4.97
2019-01-06T01:07:16.679Z,5.02
2019-01-06T01:08:15.946Z,5.07
2019-01-06T01:09:16.205Z,5.02
2019-01-06T01:10:16.475Z,5.02
2019-01-06T01:11:16.509Z,5.03
2019-01-06T01:12:15.766Z,5.00
2019-01-06T01:13:16.034Z,5.02
2019-01-06T01:14:16.297Z,5.03
2019-01-06T01:15:16.580Z,4.99
2019-01-06T01:16:15.840Z,5.03
2019-01-06T01:17:16.104Z,5.02
2019-01-06T01:18:16.366Z,4.99
2019-01-06T01:19:16.630Z,5.00
2019-01-06T01:20:15.905Z,5.03
2019-01-06T01:21:15.953Z,5.00
2019-01-06T01:22:16.540Z,4.99
2019-01-06T01:23:15.808Z,5.00
2019-01-06T01:24:16.080Z,5.00
2019-01-06T01:25:16.350Z,4.99
2019-01-06T01:26:16.620Z,4.99
2019-01-06T01:27:15.887Z,5.00
2019-01-06T01:28:16.164Z,5.02
2019-01-06T01:29:16.422Z,5.06
2019-01-06T01:30:16.682Z,5.00
2019-01-06T01:31:15.735Z,4.99
2019-01-06T01:32:16.003Z,5.00
2019-01-06T01:33:16.269Z,5.00
2019-01-06T01:34:16.535Z,4.99
2019-01-06T01:35:15.800Z,5.00
2019-01-06T01:36:16.071Z,5.04
2019-01-06T01:37:16.340Z,5.03
2019-01-06T01:38:16.601Z,5.02
2019-01-06T01:39:15.880Z,5.04
2019-01-06T01:40:16.158Z,5.02
2019-01-06T01:41:16.219Z,5.02
2019-01-06T01:42:16.486Z,5.02
2019-01-06T01:43:15.749Z,5.02
2019-01-06T01:44:16.013Z,5.00
2019-01-06T01:45:16.298Z,5.02
2019-01-06T01:46:16.572Z,5.02
2019-01-06T01:47:15.840Z,4.99
2019-01-06T01:48:16.104Z,5.00
2019-01-06T01:49:16.383Z,5.02
2019-01-06T01:50:16.652Z,5.02
2019-01-06T01:51:16.702Z,5.03
2019-01-06T01:52:15.964Z,5.02
2019-01-06T01:53:16.222Z,5.03
2019-01-06T01:54:16.487Z,5.02
2019-01-06T01:55:15.759Z,5.02
2019-01-06T01:56:16.024Z,4.99
2019-01-06T01:57:16.293Z,5.00
2019-01-06T01:58:16.560Z,5.03
2019-01-06T01:59:15.821Z,5.02
2019-01-06T02:00:16.095Z,5.02
2019-01-06T02:01:16.159Z,5.02
2019-01-06T02:02:16.430Z,5.04
2019-01-06T02:03:16.753Z,5.03
2019-01-06T02:04:16.032Z,5.04
2019-01-06T02:05:16.319Z,5.04
2019-01-06T02:06:16.584Z,5.02
2019-01-06T02:07:15.850Z,5.02
2019-01-06T02:08:16.131Z,5.07
2019-01-06T02:09:16.391Z,5.07
2019-01-06T02:10:16.659Z,5.04
2019-01-06T02:11:15.718Z,5.03
2019-01-06T02:12:15.970Z,5.00
2019-01-06T02:13:16.238Z,5.00
2019-01-06T02:14:16.497Z,5.00
2019-01-06T02:15:15.789Z,5.02
2019-01-06T02:16:16.067Z,5.02
2019-01-06T02:17:16.335Z,5.03
2019-01-06T02:18:16.606Z,5.02
2019-01-06T02:19:15.890Z,4.99
2019-01-06T02:20:16.162Z,4.99
2019-01-06T02:21:16.186Z,4.97
2019-01-06T02:22:16.451Z,5.00
2019-01-06T02:23:16.713Z,5.00
2019-01-06T02:24:15.992Z,5.02
2019-01-06T02:25:16.262Z,4.99
2019-01-06T02:26:16.540Z,4.96
2019-01-06T02:27:15.802Z,4.95
2019-01-06T02:28:16.075Z,4.95
2019-01-06T02:29:16.625Z,4.95
2019-01-06T02:30:15.908Z,4.97
2019-01-06T02:31:15.981Z,4.96
2019-01-06T02:32:16.256Z,5.00
2019-01-06T02:33:16.539Z,4.96
2019-01-06T02:34:15.811Z,4.97
2019-01-06T02:35:16.503Z,4.96
2019-01-06T02:36:15.774Z,4.96
2019-01-06T02:37:16.043Z,4.99
2019-01-06T02:38:16.322Z,4.99
2019-01-06T02:39:16.599Z,4.99
2019-01-06T02:40:15.874Z,5.00
2019-01-06T02:41:15.933Z,4.97
2019-01-06T02:42:16.205Z,4.95
2019-01-06T02:43:16.476Z,4.99
2019-01-06T02:44:15.735Z,4.97
2019-01-06T02:45:16.045Z,4.95
2019-01-06T02:46:16.404Z,4.96
2019-01-06T02:47:16.670Z,4.96
2019-01-06T02:48:15.945Z,4.95
2019-01-06T02:49:16.223Z,4.95
2019-01-06T02:50:16.510Z,4.93
2019-01-06T02:51:16.555Z,4.99
2019-01-06T02:52:15.903Z,4.97
2019-01-06T02:53:16.165Z,4.93
2019-01-06T02:54:16.422Z,4.97
2019-01-06T02:55:16.682Z,4.97
2019-01-06T02:56:15.945Z,4.99
2019-01-06T02:57:16.213Z,4.95
2019-01-06T02:58:16.478Z,4.97
2019-01-06T02:59:16.017Z,4.95
2019-01-06T03:00:16.310Z,4.95
2019-01-06T03:01:16.353Z,4.95
2019-01-06T03:02:16.617Z,4.99
2019-01-06T03:03:15.913Z,4.97
2019-01-06T03:04:16.187Z,4.97
2019-01-06T03:05:16.449Z,4.97
2019-01-06T03:06:16.710Z,4.97
2019-01-06T03:07:15.994Z,4.97
2019-01-06T03:08:16.269Z,4.97
2019-01-06T03:09:16.535Z,4.96
2019-01-06T03:10:15.815Z,4.97
2019-01-06T03:11:15.854Z,5.02
2019-01-06T03:12:16.138Z,5.00
2019-01-06T03:13:16.421Z,5.00
2019-01-06T03:14:16.977Z,4.99
2019-01-06T03:15:16.262Z,4.99
2019-01-06T03:16:16.534Z,4.99
2019-01-06T03:17:15.807Z,4.99
2019-01-06T03:18:16.081Z,4.99
2019-01-06T03:19:16.353Z,4.99
2019-01-06T03:20:16.636Z,4.97
2019-01-06T03:21:16.658Z,4.97
2019-01-06T03:22:15.920Z,4.95
2019-01-06T03:23:16.178Z,4.96
2019-01-06T03:24:16.443Z,4.96
2019-01-06T03:25:15.789Z,4.97
2019-01-06T03:26:16.053Z,4.99
2019-01-06T03:27:16.360Z,4.96
2019-01-06T03:28:16.635Z,4.96
2019-01-06T03:29:15.898Z,4.95
2019-01-06T03:30:16.171Z,4.95
2019-01-06T03:31:16.272Z,4.95
2019-01-06T03:32:16.551Z,4.95
2019-01-06T03:33:15.831Z,4.92
2019-01-06T03:34:16.127Z,4.97
2019-01-06T03:35:16.399Z,4.97
2019-01-06T03:36:16.672Z,4.99
2019-01-06T03:37:15.935Z,4.97
2019-01-06T03:38:16.197Z,4.97
2019-01-06T03:39:16.467Z,4.96
2019-01-06T03:40:15.736Z,4.95
2019-01-06T03:41:16.292Z,5.02
2019-01-06T03:42:16.637Z,5.00
2019-01-06T03:43:15.902Z,5.02
2019-01-06T03:44:16.170Z,4.99
2019-01-06T03:45:16.450Z,4.99
2019-01-06T03:46:15.717Z,4.97
2019-01-06T03:47:15.987Z,4.95
2019-01-06T03:48:16.250Z,4.96
2019-01-06T03:49:16.514Z,4.97
2019-01-06T03:50:15.796Z,4.97
2019-01-06T03:51:15.841Z,4.97
2019-01-06T03:52:16.107Z,4.96
2019-01-06T03:53:16.379Z,4.97
2019-01-06T03:54:16.662Z,4.97
2019-01-06T03:55:16.235Z,4.96
2019-01-06T03:56:16.507Z,4.99
2019-01-06T03:57:15.778Z,4.96
2019-01-06T03:58:16.037Z,4.95
2019-01-06T03:59:16.313Z,4.95
2019-01-06T04:00:16.603Z,4.96
2019-01-06T04:01:16.660Z,4.93
2019-01-06T04:02:15.933Z,4.92
2019-01-06T04:03:16.196Z,4.92
2019-01-06T04:04:16.464Z,4.96
2019-01-06T04:05:15.733Z,4.95
2019-01-06T04:06:15.997Z,4.95
2019-01-06T04:07:16.258Z,4.96
2019-01-06T04:08:16.519Z,4.97
2019-01-06T04:09:15.775Z,4.99
2019-01-06T04:10:16.046Z,4.95
2019-01-06T04:11:16.086Z,4.90
2019-01-06T04:12:16.372Z,4.93
2019-01-06T04:13:16.640Z,4.96
2019-01-06T04:14:15.914Z,4.97
2019-01-06T04:15:16.212Z,5.03
2019-01-06T04:16:16.498Z,4.99
2019-01-06T04:17:15.779Z,4.96
2019-01-06T04:18:16.039Z,4.96
2019-01-06T04:19:16.311Z,4.95
2019-01-06T04:20:16.579Z,4.97
2019-01-06T04:21:16.634Z,4.97
2019-01-06T04:22:15.896Z,4.96
2019-01-06T04:23:16.159Z,4.99
2019-01-06T04:24:16.679Z,4.93
2019-01-06T04:25:15.966Z,4.96
2019-01-06T04:26:16.240Z,4.92
2019-01-06T04:27:16.508Z,4.92
2019-01-06T04:28:15.777Z,4.93
2019-01-06T04:29:16.047Z,4.95
2019-01-06T04:30:16.601Z,4.89
2019-01-06T04:31:16.372Z,4.96
2019-01-06T04:32:16.642Z,4.93
2019-01-06T04:33:15.909Z,4.93
2019-01-06T04:34:16.182Z,4.95
2019-01-06T04:35:16.450Z,4.95
2019-01-06T04:36:16.712Z,4.93
2019-01-06T04:37:15.986Z,4.96
2019-01-06T04:38:16.263Z,4.96
2019-01-06T04:39:16.524Z,4.95
2019-01-06T04:40:15.797Z,4.96
2019-01-06T04:41:15.835Z,4.95
2019-01-06T04:42:16.100Z,4.93
2019-01-06T04:43:16.356Z,4.95
2019-01-06T04:44:16.646Z,4.93
2019-01-06T04:45:16.022Z,4.92
2019-01-06T04:46:16.287Z,4.93
2019-01-06T04:47:16.551Z,4.92
2019-01-06T04:48:15.819Z,4.93
2019-01-06T04:49:16.087Z,4.92
2019-01-06T04:50:16.355Z,4.90
2019-01-06T04:51:16.404Z,4.93
2019-01-06T04:52:16.685Z,4.89
2019-01-06T04:53:15.947Z,4.91
2019-01-06T04:54:16.215Z,4.90
2019-01-06T04:55:16.488Z,4.93
2019-01-06T04:56:15.751Z,4.92
2019-01-06T04:57:16.225Z,4.90
2019-01-06T04:58:16.497Z,4.89
2019-01-06T04:59:15.763Z,4.92
2019-01-06T05:00:16.046Z,4.89
2019-01-06T05:01:16.097Z,4.87
2019-01-06T05:02:16.373Z,4.86
2019-01-06T05:03:16.641Z,4.85
2019-01-06T05:04:15.908Z,4.83
2019-01-06T05:05:16.172Z,4.83
2019-01-06T05:06:16.442Z,4.83
2019-01-06T05:07:16.707Z,4.82
2019-01-06T05:08:15.970Z,4.82
2019-01-06T05:09:16.247Z,4.85
2019-01-06T05:10:16.554Z,4.86
2019-01-06T05:11:16.564Z,4.86
2019-01-06T05:12:15.832Z,4.87
2019-01-06T05:13:16.110Z,4.85
2019-01-06T05:14:16.369Z,4.86
2019-01-06T05:15:16.645Z,4.85
2019-01-06T05:16:15.906Z,4.86
2019-01-06T05:17:16.440Z,4.86
2019-01-06T05:18:16.706Z,4.90
2019-01-06T05:19:15.970Z,4.89
2019-01-06T05:20:16.271Z,4.89
2019-01-06T05:21:16.299Z,4.89
2019-01-06T05:22:16.860Z,4.87
2019-01-06T05:23:16.128Z,4.90
2019-01-06T05:24:16.402Z,4.90
2019-01-06T05:25:16.669Z,4.89
2019-01-06T05:26:15.931Z,4.89
2019-01-06T05:27:16.188Z,4.90
2019-01-06T05:28:16.444Z,4.90
2019-01-06T05:29:15.721Z,4.89
2019-01-06T05:30:15.992Z,4.86
2019-01-06T05:31:16.044Z,4.85
2019-01-06T05:32:16.316Z,4.93
2019-01-06T05:33:16.587Z,4.95
2019-01-06T05:34:15.861Z,4.92
2019-01-06T05:35:16.130Z,4.86
2019-01-06T05:36:16.399Z,4.86
2019-01-06T05:37:16.659Z,4.86
2019-01-06T05:38:16.312Z,4.88
2019-01-06T05:39:16.571Z,4.88
2019-01-06T05:40:15.851Z,4.87
2019-01-06T05:41:15.889Z,4.92
2019-01-06T05:42:16.149Z,4.86
2019-01-06T05:43:16.417Z,4.89
2019-01-06T05:44:16.682Z,4.86
2019-01-06T05:45:15.961Z,4.88
2019-01-06T05:46:16.238Z,4.90
2019-01-06T05:47:16.511Z,4.91
2019-01-06T05:48:15.774Z,4.88
2019-01-06T05:49:16.042Z,4.89
2019-01-06T05:50:16.317Z,4.91
2019-01-06T05:51:16.384Z,4.91
2019-01-06T05:52:16.645Z,4.92
2019-01-06T05:53:15.910Z,4.90
2019-01-06T05:54:16.169Z,4.92
2019-01-06T05:55:16.441Z,4.87
2019-01-06T05:56:16.716Z,4.89
2019-01-06T05:57:15.986Z,4.90
2019-01-06T05:58:16.250Z,4.87
2019-01-06T05:59:16.524Z,4.87
2019-01-06T06:00:15.785Z,4.86
2019-01-06T06:01:15.868Z,4.86
2019-01-06T06:02:16.132Z,4.89
2019-01-06T06:03:16.400Z,4.89
2019-01-06T06:04:16.662Z,4.91
2019-01-06T06:05:15.926Z,4.92
2019-01-06T06:06:16.192Z,4.89
2019-01-06T06:07:16.454Z,4.88
2019-01-06T06:08:15.724Z,4.87
2019-01-06T06:09:15.982Z,4.86
2019-01-06T06:10:16.252Z,4.88
2019-01-06T06:11:16.290Z,4.88
2019-01-06T06:12:16.565Z,4.84
2019-01-06T06:13:15.839Z,4.85
2019-01-06T06:14:16.109Z,4.84
2019-01-06T06:15:16.367Z,4.86
2019-01-06T06:16:16.621Z,4.86
2019-01-06T06:17:15.886Z,4.81
2019-01-06T06:18:16.159Z,4.88
2019-01-06T06:19:16.425Z,4.88
2019-01-06T06:20:16.692Z,4.88
2019-01-06T06:21:15.754Z,4.88
2019-01-06T06:22:16.038Z,4.89
2019-01-06T06:23:16.296Z,4.88
2019-01-06T06:24:17.776Z,4.86
2019-01-06T06:25:16.105Z,4.86
2019-01-06T06:26:16.379Z,4.89
2019-01-06T06:27:16.650Z,4.86
2019-01-06T06:28:15.916Z,4.82
2019-01-06T06:29:16.173Z,4.85
2019-01-06T06:30:16.453Z,4.86
2019-01-06T06:31:16.476Z,4.84
2019-01-06T06:32:15.753Z,4.86
2019-01-06T06:33:16.013Z,4.85
2019-01-06T06:34:16.283Z,4.86
2019-01-06T06:35:16.575Z,4.85
2019-01-06T06:36:15.867Z,4.88
2019-01-06T06:37:16.140Z,4.86
2019-01-06T06:38:16.408Z,4.85
2019-01-06T06:39:16.705Z,4.87
2019-01-06T06:40:16.150Z,4.89
2019-01-06T06:41:16.032Z,4.86
2019-01-06T06:42:16.305Z,4.86
2019-01-06T06:43:16.575Z,4.85
2019-01-06T06:44:15.846Z,4.83
2019-01-06T06:45:16.128Z,4.86
2019-01-06T06:46:16.400Z,4.86
2019-01-06T06:47:16.660Z,4.86
2019-01-06T06:48:15.929Z,4.86
2019-01-06T06:49:16.200Z,4.82
2019-01-06T06:50:16.474Z,4.85
2019-01-06T06:51:16.520Z,4.82
2019-01-06T06:52:15.782Z,4.82
2019-01-06T06:53:16.054Z,4.82
2019-01-06T06:54:16.316Z,4.84
2019-01-06T06:55:16.582Z,4.84
2019-01-06T06:56:15.852Z,4.84
2019-01-06T06:57:16.112Z,4.82
2019-01-06T06:58:16.378Z,4.81
2019-01-06T06:59:16.653Z,4.82
2019-01-06T07:00:15.919Z,4.86
2019-01-06T07:01:15.974Z,4.87
2019-01-06T07:02:16.227Z,4.86
2019-01-06T07:03:16.774Z,4.85
2019-01-06T07:04:16.041Z,4.84
2019-01-06T07:05:16.302Z,4.81
2019-01-06T07:06:16.566Z,4.86
2019-01-06T07:07:15.840Z,4.82
2019-01-06T07:08:16.099Z,4.81
2019-01-06T07:09:16.364Z,4.79
2019-01-06T07:10:16.640Z,4.85
2019-01-06T07:11:16.668Z,4.84
2019-01-06T07:12:15.927Z,4.88
2019-01-06T07:13:16.193Z,4.85
2019-01-06T07:14:16.459Z,4.86
2019-01-06T07:15:15.741Z,4.82
2019-01-06T07:16:15.999Z,4.81
2019-01-06T07:17:16.262Z,4.78
2019-01-06T07:18:16.529Z,4.76
2019-01-06T07:19:15.791Z,4.84
2019-01-06T07:20:16.073Z,4.86
2019-01-06T07:21:16.093Z,4.89
2019-01-06T07:22:16.363Z,4.89
2019-01-06T07:23:16.627Z,4.86
2019-01-06T07:24:15.886Z,4.89
2019-01-06T07:25:16.444Z,4.88
2019-01-06T07:26:16.717Z,4.89
2019-01-06T07:27:15.986Z,4.85
2019-01-06T07:28:16.250Z,4.89
2019-01-06T07:29:16.542Z,4.91
2019-01-06T07:30:15.831Z,4.89
2019-01-06T07:31:15.889Z,4.86
2019-01-06T07:32:16.150Z,4.84
2019-01-06T07:33:16.433Z,4.84
2019-01-06T07:34:16.708Z,4.85
2019-01-06T07:35:15.976Z,4.84
2019-01-06T07:36:16.249Z,4.85
2019-01-06T07:37:16.516Z,4.84
2019-01-06T07:38:15.783Z,4.85
2019-01-06T07:39:16.053Z,4.84
2019-01-06T07:40:16.332Z,4.85
2019-01-06T07:41:16.371Z,4.82
2019-01-06T07:42:16.627Z,4.89
2019-01-06T07:43:15.888Z,4.86
2019-01-06T07:44:16.161Z,4.86
2019-01-06T07:45:16.428Z,4.91
2019-01-06T07:46:16.692Z,4.84
2019-01-06T07:47:15.964Z,4.84
2019-01-06T07:48:16.242Z,4.86
2019-01-06T07:49:16.502Z,4.88
2019-01-06T07:50:15.797Z,4.89
2019-01-06T07:51:15.864Z,4.88
2019-01-06T07:52:16.126Z,4.88
2019-01-06T07:53:16.406Z,4.91
2019-01-06T07:54:16.677Z,4.92
2019-01-06T07:55:15.938Z,4.95
2019-01-06T07:56:16.215Z,4.91
2019-01-06T07:57:16.483Z,4.89
2019-01-06T07:58:15.746Z,4.91
2019-01-06T07:59:16.019Z,4.92
2019-01-06T08:00:16.295Z,4.91
2019-01-06T08:01:16.333Z,4.86
2019-01-06T08:02:16.609Z,4.89
2019-01-06T08:03:15.869Z,4.86
2019-01-06T08:04:16.141Z,4.91
2019-01-06T08:05:16.412Z,4.88
2019-01-06T08:06:16.961Z,4.86
2019-01-06T08:07:16.226Z,4.88
2019-01-06T08:08:16.493Z,4.92
2019-01-06T08:09:15.759Z,4.92
2019-01-06T08:10:16.046Z,4.88
2019-01-06T08:11:16.074Z,4.88
2019-01-06T08:12:16.345Z,4.88
2019-01-06T08:13:16.600Z,4.88
2019-01-06T08:14:15.869Z,4.88
2019-01-06T08:15:16.156Z,4.88
2019-01-06T08:16:16.421Z,4.92
2019-01-06T08:17:16.687Z,4.89
2019-01-06T08:18:15.945Z,4.89
2019-01-06T08:19:16.229Z,4.92
2019-01-06T08:20:16.508Z,4.91
2019-01-06T08:21:16.594Z,4.75
2019-01-06T08:22:15.862Z,4.54
2019-01-06T08:23:16.130Z,4.38
2019-01-06T08:24:16.394Z,4.27
2019-01-06T08:25:16.665Z,4.13
2019-01-06T08:26:15.929Z,4.10
2019-01-06T08:27:16.185Z,4.02
2019-01-06T08:28:16.457Z,4.00
2019-01-06T08:29:15.731Z,4.02
2019-01-06T08:30:16.000Z,4.03
2019-01-06T08:31:16.058Z,4.02
2019-01-06T08:32:16.334Z,3.96
2019-01-06T08:33:16.603Z,3.92
2019-01-06T08:34:15.869Z,3.92
2019-01-06T08:35:16.140Z,3.96
2019-01-06T08:36:16.404Z,3.96
2019-01-06T08:37:16.665Z,3.96
2019-01-06T08:38:15.926Z,3.93
2019-01-06T08:39:16.186Z,3.96
2019-01-06T08:40:16.464Z,3.92
2019-01-06T08:41:16.506Z,3.92
2019-01-06T08:42:16.039Z,3.86
2019-01-06T08:43:16.312Z,3.95
2019-01-06T08:44:16.563Z,3.93
2019-01-06T08:45:15.839Z,3.95
2019-01-06T08:46:16.104Z,3.92
2019-01-06T08:47:16.376Z,3.92
2019-01-06T08:48:16.648Z,3.92
2019-01-06T08:49:15.911Z,3.93
2019-01-06T08:50:16.196Z,3.95
2019-01-06T08:51:16.240Z,3.96
2019-01-06T08:52:16.504Z,3.95
2019-01-06T08:53:15.758Z,3.93
2019-01-06T08:54:16.025Z,3.95
2019-01-06T08:55:16.298Z,3.99
2019-01-06T08:56:16.573Z,3.89
2019-01-06T08:57:15.834Z,3.86
2019-01-06T08:58:16.094Z,3.88
2019-01-06T08:59:16.358Z,3.86
2019-01-06T09:00:16.620Z,3.88
2019-01-06T09:01:16.695Z,3.89
2019-01-06T09:02:15.962Z,3.90
2019-01-06T09:03:16.228Z,3.92
2019-01-06T09:04:16.501Z,3.95
2019-01-06T09:05:15.770Z,3.92
2019-01-06T09:06:16.030Z,3.93
2019-01-06T09:07:16.308Z,3.96
2019-01-06T09:08:16.572Z,3.96
2019-01-06T09:09:15.835Z,3.96
2019-01-06T09:10:16.110Z,3.95
2019-01-06T09:11:16.160Z,3.93
2019-01-06T09:12:16.433Z,3.90
2019-01-06T09:13:16.701Z,3.90
2019-01-06T09:14:15.980Z,3.89
2019-01-06T09:15:16.254Z,3.93
2019-01-06T09:16:16.517Z,3.92
2019-01-06T09:17:15.782Z,3.88
2019-01-06T09:18:16.057Z,3.96
2019-01-06T09:19:16.324Z,3.99
2019-01-06T09:20:16.603Z,4.00
2019-01-06T09:21:16.634Z,3.99
2019-01-06T09:22:15.896Z,3.98
2019-01-06T09:23:16.161Z,3.98
2019-01-06T09:24:16.424Z,4.05
2019-01-06T09:25:16.681Z,4.03
2019-01-06T09:26:15.956Z,4.03
2019-01-06T09:27:16.212Z,4.00
2019-01-06T09:28:16.476Z,4.06
2019-01-06T09:29:15.748Z,4.05
2019-01-06T09:30:16.032Z,4.08
2019-01-06T09:31:16.089Z,4.03
2019-01-06T09:32:16.356Z,4.05
2019-01-06T09:33:16.625Z,3.99
2019-01-06T09:34:15.885Z,4.08
2019-01-06T09:35:16.176Z,4.00
2019-01-06T09:36:16.445Z,4.02
2019-01-06T09:37:16.715Z,4.03
2019-01-06T09:38:15.973Z,4.08
2019-01-06T09:39:16.241Z,4.08
2019-01-06T09:40:16.515Z,4.10
2019-01-06T09:41:16.557Z,4.13
2019-01-06T09:42:15.816Z,4.19
2019-01-06T09:43:16.069Z,4.16
2019-01-06T09:44:16.333Z,4.24
2019-01-06T09:45:16.600Z,4.27
2019-01-06T09:46:15.861Z,4.23
2019-01-06T09:47:16.144Z,4.20
2019-01-06T09:48:16.409Z,4.21
2019-01-06T09:49:17.011Z,4.23
2019-01-06T09:50:16.294Z,4.27
2019-01-06T09:51:16.336Z,4.21
2019-01-06T09:52:16.605Z,4.26
2019-01-06T09:53:15.870Z,4.27
2019-01-06T09:54:16.133Z,4.30
2019-01-06T09:55:16.398Z,4.28
2019-01-06T09:56:16.662Z,4.23
2019-01-06T09:57:15.936Z,4.23
2019-01-06T09:58:16.193Z,4.34
2019-01-06T09:59:16.453Z,4.36
2019-01-06T10:00:15.732Z,4.34
2019-01-06T10:01:15.754Z,4.41
2019-01-06T10:02:16.012Z,4.40
2019-01-06T10:03:16.276Z,4.26
2019-01-06T10:04:16.547Z,4.28
2019-01-06T10:05:15.827Z,4.33
2019-01-06T10:06:16.093Z,4.43
2019-01-06T10:07:16.362Z,4.41
2019-01-06T10:08:16.625Z,4.46
2019-01-06T10:09:15.896Z,4.50
2019-01-06T10:10:16.162Z,4.51
2019-01-06T10:11:16.206Z,4.63
2019-01-06T10:12:16.485Z,4.67
2019-01-06T10:13:15.757Z,4.60
2019-01-06T10:14:16.034Z,4.50
2019-01-06T10:15:16.288Z,4.60
2019-01-06T10:16:16.550Z,4.65
2019-01-06T10:17:15.813Z,4.78
2019-01-06T10:18:16.092Z,4.78
2019-01-06T10:19:16.683Z,4.91
2019-01-06T10:20:15.959Z,4.84
2019-01-06T10:21:16.120Z,4.74
2019-01-06T10:22:16.416Z,4.75
2019-01-06T10:23:16.694Z,4.82
2019-01-06T10:24:15.965Z,4.92
2019-01-06T10:25:16.229Z,5.02
2019-01-06T10:26:16.498Z,4.89
2019-01-06T10:27:15.766Z,4.93
2019-01-06T10:28:16.030Z,4.96
2019-01-06T10:29:16.298Z,4.92
2019-01-06T10:30:16.573Z,4.79
2019-01-06T10:31:16.622Z,4.79
2019-01-06T10:32:15.893Z,4.93
2019-01-06T10:33:16.165Z,4.91
2019-01-06T10:34:16.455Z,4.98
2019-01-06T10:35:15.717Z,5.03
2019-01-06T10:36:15.985Z,5.06
2019-01-06T10:37:16.247Z,4.99
2019-01-06T10:38:16.518Z,5.05
2019-01-06T10:39:15.788Z,5.10
2019-01-06T10:40:16.068Z,5.05
2019-01-06T10:41:16.106Z,5.12
2019-01-06T10:42:16.376Z,5.10
2019-01-06T10:43:16.634Z,5.06
2019-01-06T10:44:15.901Z,4.96
2019-01-06T10:45:16.165Z,4.99
2019-01-06T10:46:16.424Z,4.96
2019-01-06T10:47:16.692Z,4.82
2019-01-06T10:48:15.952Z,4.85
2019-01-06T10:49:16.213Z,5.00
2019-01-06T10:50:16.486Z,4.89
2019-01-06T10:51:16.559Z,4.99
2019-01-06T10:52:15.815Z,4.95
2019-01-06T10:53:16.075Z,4.99
2019-01-06T10:54:16.341Z,4.98
2019-01-06T10:55:16.600Z,5.02
2019-01-06T10:56:15.882Z,5.09
2019-01-06T10:57:16.159Z,5.20
2019-01-06T10:58:16.420Z,5.26
2019-01-06T10:59:16.732Z,5.19
2019-01-06T11:00:16.011Z,5.17
2019-01-06T11:01:16.057Z,5.10
2019-01-06T11:02:16.332Z,5.14
2019-01-06T11:03:16.603Z,5.13
2019-01-06T11:04:15.865Z,5.12
2019-01-06T11:05:16.135Z,5.07
2019-01-06T11:06:16.403Z,5.10
2019-01-06T11:07:16.670Z,5.12
2019-01-06T11:08:15.934Z,5.07
2019-01-06T11:09:16.232Z,5.03
2019-01-06T11:10:16.510Z,5.06
2019-01-06T11:11:16.554Z,5.12
2019-01-06T11:12:15.818Z,5.07
2019-01-06T11:13:16.081Z,5.05
2019-01-06T11:14:16.344Z,5.12
2019-01-06T11:15:16.603Z,5.17
2019-01-06T11:16:15.865Z,5.23
2019-01-06T11:17:16.138Z,5.19
2019-01-06T11:18:16.399Z,5.17
2019-01-06T11:19:16.999Z,5.24
2019-01-06T11:20:16.267Z,5.34
2019-01-06T11:21:16.315Z,5.26
2019-01-06T11:22:16.592Z,5.26
2019-01-06T11:23:15.860Z,5.24
2019-01-06T11:24:16.122Z,5.26
2019-01-06T11:25:16.398Z,5.28
2019-01-06T11:26:16.677Z,5.31
2019-01-06T11:27:15.951Z,5.22
2019-01-06T11:28:16.214Z,5.27
2019-01-06T11:29:16.479Z,5.30
2019-01-06T11:30:15.759Z,5.23
2019-01-06T11:31:15.801Z,5.28
2019-01-06T11:32:16.064Z,5.27
2019-01-06T11:33:16.324Z,5.17
2019-01-06T11:34:16.589Z,5.30
2019-01-06T11:35:15.860Z,5.38
2019-01-06T11:36:16.135Z,5.30
2019-01-06T11:37:16.392Z,5.26
2019-01-06T11:38:16.657Z,5.22
2019-01-06T11:39:15.919Z,5.26
2019-01-06T11:40:16.195Z,5.24
2019-01-06T11:41:16.236Z,5.22
2019-01-06T11:42:16.502Z,5.24
2019-01-06T11:43:15.760Z,5.24
2019-01-06T11:44:16.027Z,5.24
2019-01-06T11:45:16.317Z,5.23
2019-01-06T11:46:16.570Z,5.19
2019-01-06T11:47:15.843Z,5.28
2019-01-06T11:48:16.104Z,5.26
2019-01-06T11:49:16.364Z,5.24
2019-01-06T11:50:16.639Z,5.26
2019-01-06T11:51:16.680Z,5.27
2019-01-06T11:52:15.936Z,5.34
2019-01-06T11:53:16.193Z,5.34
2019-01-06T11:54:16.446Z,5.31
2019-01-06T11:55:16.721Z,5.31
2019-01-06T11:56:15.991Z,5.35
2019-01-06T11:57:16.255Z,5.40
2019-01-06T11:58:16.513Z,5.38
2019-01-06T11:59:15.777Z,5.37
2019-01-06T12:00:16.333Z,5.35
2019-01-06T12:01:16.092Z,5.37
2019-01-06T12:02:16.353Z,5.41
2019-01-06T12:03:16.628Z,5.45
2019-01-06T12:04:15.899Z,5.41
2019-01-06T12:05:16.157Z,5.41
2019-01-06T12:06:16.426Z,5.45
2019-01-06T12:07:16.688Z,5.48
2019-01-06T12:08:15.956Z,5.48
2019-01-06T12:09:16.222Z,5.43
2019-01-06T12:10:16.498Z,5.45
2019-01-06T12:11:16.537Z,5.45
2019-01-06T12:12:15.812Z,5.50
2019-01-06T12:13:16.077Z,5.60
2019-01-06T12:14:16.347Z,5.60
2019-01-06T12:15:16.621Z,5.64
2019-01-06T12:16:15.900Z,5.68
2019-01-06T12:17:16.161Z,5.48
2019-01-06T12:18:16.426Z,5.55
2019-01-06T12:19:16.682Z,5.60
2019-01-06T12:20:15.954Z,5.58
2019-01-06T12:21:16.026Z,5.62
2019-01-06T12:22:16.309Z,5.44
2019-01-06T12:23:16.574Z,5.45
2019-01-06T12:24:15.836Z,5.47
2019-01-06T12:25:16.111Z,5.51
2019-01-06T12:26:16.370Z,5.44
2019-01-06T12:27:16.640Z,5.37
2019-01-06T12:28:15.921Z,5.38
2019-01-06T12:29:16.189Z,5.41
2019-01-06T12:30:16.468Z,5.43
2019-01-06T12:31:16.527Z,5.37
2019-01-06T12:32:15.798Z,5.50
2019-01-06T12:33:16.069Z,5.44
2019-01-06T12:34:16.341Z,5.40
2019-01-06T12:35:16.622Z,5.38
2019-01-06T12:36:15.882Z,5.31
2019-01-06T12:37:16.236Z,5.45
2019-01-06T12:38:16.500Z,5.38
2019-01-06T12:39:15.759Z,5.40
2019-01-06T12:40:16.031Z,5.45
2019-01-06T12:41:16.058Z,5.28
2019-01-06T12:42:16.330Z,5.22
2019-01-06T12:43:16.594Z,5.30
2019-01-06T12:44:15.860Z,5.16
2019-01-06T12:45:16.132Z,5.17
2019-01-06T12:46:16.391Z,5.20
2019-01-06T12:47:16.654Z,5.16
2019-01-06T12:48:15.919Z,5.09
2019-01-06T12:49:16.187Z,5.14
2019-01-06T12:50:16.490Z,5.23
2019-01-06T12:51:16.527Z,5.14
2019-01-06T12:52:15.788Z,5.14
2019-01-06T12:53:16.067Z,5.19
2019-01-06T12:54:16.336Z,5.14
2019-01-06T12:55:16.601Z,5.17
2019-01-06T12:56:15.871Z,5.12
2019-01-06T12:57:16.143Z,5.19
2019-01-06T12:58:16.396Z,5.17
2019-01-06T12:59:16.658Z,5.13
2019-01-06T13:00:15.919Z,5.09
2019-01-06T13:01:15.984Z,5.05
2019-01-06T13:02:16.245Z,5.06
2019-01-06T13:03:16.504Z,5.03
2019-01-06T13:04:15.769Z,5.09
2019-01-06T13:05:16.045Z,5.05
2019-01-06T13:06:16.336Z,5.09
2019-01-06T13:07:16.602Z,5.09
2019-01-06T13:08:15.879Z,5.05
2019-01-06T13:09:16.449Z,5.06
2019-01-06T13:10:15.727Z,5.06
2019-01-06T13:11:15.785Z,5.10
2019-01-06T13:12:16.113Z,5.07
2019-01-06T13:13:16.385Z,5.03
2019-01-06T13:14:16.646Z,5.00
2019-01-06T13:15:15.923Z,4.99
2019-01-06T13:16:16.198Z,4.96
2019-01-06T13:17:16.463Z,4.89
2019-01-06T13:18:15.736Z,4.91